Terminal Aerodrome Forecast
Issued by NWS Rapid City, SD

Home | Current Version | Previous Version | Graphics & Text | Print | Product List | Glossary On
Versions: 1 2 3 4 5 6 7 8 9 10 11 12 13 14
814
FTUS43 KUNR 281120
TAFRAP
TAF
KRAP 281120Z 2812/2912 VRB05KT P6SM SCT080
     FM281800 36008KT P6SM VCSH BKN060
      TEMPO 2819/2823 -TSRA BKN050CB
     FM290100 32006KT P6SM SCT250=

USA.gov is the U.S. government's official web portal to all federal, state and local government web resources and services.